Time;durP1;ratioP1;P1;durP2;ratioP2;P2;SDS_P1;SDS_P2;PMS_P1;PMS_P2;Temp;Humidity;BMP_temperature;BMP_pressure;BME280_temperature;BME280_humidity;BME280_pressure;Samples;Min_cycle;Max_cycle;Signal;HPM_P1;HPM_P2
2022/03/02 00:01:40;;;;;;;143.78;59.50;;;;;;;-5.31;62.33;101606.08;1707716;84;25668;-71
2022/03/02 00:04:07;;;;;;;153.45;62.62;;;;;;;-5.30;62.20;101607.73;1707469;84;25573;-71
2022/03/02 00:06:34;;;;;;;138.55;56.35;;;;;;;-5.32;62.27;101601.31;1707628;84;28047;-72
2022/03/02 00:09:00;;;;;;;158.52;56.65;;;;;;;-5.33;62.32;101604.13;1707703;84;25827;-71
2022/03/02 00:11:30;;;;;;;155.43;57.35;;;;;;;-5.33;62.87;101607.60;1707406;84;25319;-71
2022/03/02 00:14:00;;;;;;;147.07;60.85;;;;;;;-5.35;62.83;101604.80;1707665;84;25631;-71
2022/03/02 00:16:28;;;;;;;139.68;58.52;;;;;;;-5.35;62.74;101604.80;1708256;83;25398;-71
2022/03/02 00:18:59;;;;;;;138.68;58.28;;;;;;;-5.38;62.66;101598.06;1709468;83;28030;-70
2022/03/02 00:21:26;;;;;;;143.32;57.73;;;;;;;-5.38;62.64;101595.90;1709639;83;25634;-71
2022/03/02 00:23:53;;;;;;;146.57;57.78;;;;;;;-5.40;62.58;101593.94;1709815;83;25745;-70
2022/03/02 00:26:20;;;;;;;135.88;55.23;;;;;;;-5.42;62.61;101602.02;1709572;83;25735;-71
2022/03/02 00:28:46;;;;;;;125.70;52.70;;;;;;;-5.44;62.69;101594.78;1709984;83;25660;-70
2022/03/02 00:31:13;;;;;;;146.37;59.05;;;;;;;-5.45;62.77;101597.92;1660346;83;27211;-71
2022/03/02 00:33:40;;;;;;;156.85;63.92;;;;;;;-5.47;62.62;101597.25;1709580;83;25339;-71
2022/03/02 00:36:06;;;;;;;146.45;59.73;;;;;;;-5.49;62.50;101591.83;1709853;83;25672;-71
2022/03/02 00:38:33;;;;;;;147.82;59.25;;;;;;;-5.52;62.51;101595.62;1709791;83;26313;-72
2022/03/02 00:40:59;;;;;;;130.95;52.48;;;;;;;-5.53;62.68;101591.86;1709660;83;25609;-71
2022/03/02 00:43:26;;;;;;;147.35;58.08;;;;;;;-5.59;62.94;101580.67;1709819;83;27310;-71
2022/03/02 00:45:52;;;;;;;147.47;62.17;;;;;;;-5.60;62.93;101584.28;1709767;83;25475;-71
2022/03/02 00:48:19;;;;;;;124.10;51.40;;;;;;;-5.62;62.93;101583.13;1709464;83;25683;-71
2022/03/02 00:50:47;;;;;;;120.42;49.35;;;;;;;-5.63;63.03;101582.83;1680698;85;25733;-71
2022/03/02 00:53:14;;;;;;;108.20;46.70;;;;;;;-5.65;62.90;101580.36;1680797;85;25677;-71
2022/03/02 00:55:41;;;;;;;104.50;44.95;;;;;;;-5.69;62.80;101568.99;1663049;86;27327;-71
2022/03/02 00:58:08;;;;;;;109.10;46.48;;;;;;;-5.69;62.79;101572.44;1683045;85;25605;-71
2022/03/02 01:00:36;;;;;;;113.68;47.08;;;;;;;-5.70;62.64;101572.13;1679390;85;25602;-71
2022/03/02 01:03:04;;;;;;;108.75;43.85;;;;;;;-5.72;62.86;101572.81;1662859;86;25774;-70
2022/03/02 01:05:31;;;;;;;91.75;40.75;;;;;;;-5.73;63.28;101578.25;1683574;85;25442;-70
2022/03/02 01:07:57;;;;;;;101.33;40.28;;;;;;;-5.75;63.41;101571.83;1681145;85;27309;-70
2022/03/02 01:10:24;;;;;;;102.27;43.17;;;;;;;-5.78;63.40;101566.88;1638032;84;25852;-70
2022/03/02 01:12:51;;;;;;;114.88;46.02;;;;;;;-5.80;63.42;101569.37;1634728;87;25511;-70
2022/03/02 01:15:18;;;;;;;128.65;50.48;;;;;;;-5.84;63.38;101563.13;1611813;87;25802;-71
2022/03/02 01:17:45;;;;;;;125.27;52.13;;;;;;;-5.86;63.60;101562.95;1631556;87;25579;-71
2022/03/02 01:20:12;;;;;;;116.60;46.15;;;;;;;-5.88;63.53;101560.98;1630732;88;27325;-71
2022/03/02 01:22:39;;;;;;;115.60;48.45;;;;;;;-5.88;63.70;101560.98;1653197;86;25415;-70
2022/03/02 01:25:09;;;;;;;125.62;50.60;;;;;;;-5.88;63.96;101559.67;1657940;86;25558;-70
2022/03/02 01:27:36;;;;;;;122.90;48.33;;;;;;;-5.89;64.09;101562.81;1658051;86;25621;-70
2022/03/02 01:30:06;;;;;;;117.15;48.50;;;;;;;-5.90;63.69;101553.75;1657949;86;25615;-71
2022/03/02 01:32:33;;;;;;;123.92;49.33;;;;;;;-5.91;63.99;101553.41;1657947;86;27310;-70
2022/03/02 01:34:59;;;;;;;138.32;54.15;;;;;;;-5.90;64.00;101557.20;1648086;85;25582;-71
2022/03/02 01:37:26;;;;;;;125.85;51.92;;;;;;;-5.91;63.50;101558.17;1657962;86;25383;-71
2022/03/02 01:39:52;;;;;;;150.05;54.55;;;;;;;-5.91;63.78;101553.41;1657879;86;25633;-71
2022/03/02 01:42:28;;;;;;;139.60;55.95;;;;;;;-5.91;63.85;101550.77;1657994;86;25597;-70
2022/03/02 01:44:58;;;;;;;142.07;56.75;;;;;;;-5.90;64.17;101553.75;1657914;86;27308;-70
2022/03/02 01:47:28;;;;;;;155.25;60.55;;;;;;;-5.90;64.37;101553.75;1657989;85;25624;-70
2022/03/02 01:49:54;;;;;;;153.10;61.75;;;;;;;-5.91;64.34;101554.23;1657976;86;25568;-72
2022/03/02 01:52:21;;;;;;;155.27;59.50;;;;;;;-5.90;64.46;101544.02;1624308;88;25623;-71
2022/03/02 01:54:47;;;;;;;142.95;57.20;;;;;;;-5.89;64.45;101545.68;1619811;88;25521;-71
2022/03/02 01:57:14;;;;;;;133.93;55.23;;;;;;;-5.87;64.34;101542.88;1619861;88;28024;-71
2022/03/02 01:59:41;;;;;;;147.13;56.77;;;;;;;-5.88;64.01;101543.86;1619726;88;25558;-71
2022/03/02 02:02:08;;;;;;;134.50;55.00;;;;;;;-5.90;64.09;101540.07;1619876;88;25593;-71
2022/03/02 02:04:35;;;;;;;144.05;56.50;;;;;;;-5.92;64.29;101536.79;1619778;88;25567;-71
2022/03/02 02:07:02;;;;;;;144.53;59.08;;;;;;;-5.92;64.47;101528.07;1619875;88;25502;-71
2022/03/02 02:09:29;;;;;;;143.20;56.88;;;;;;;-5.91;64.72;101530.51;1619816;88;27338;-71
2022/03/02 02:11:55;;;;;;;138.65;53.83;;;;;;;-5.92;64.77;101527.56;1619801;88;25576;-71
2022/03/02 02:14:22;;;;;;;139.65;52.40;;;;;;;-5.93;64.73;101524.59;1619841;88;25473;-71
2022/03/02 02:16:49;;;;;;;135.48;52.98;;;;;;;-5.94;64.59;101524.76;1638765;86;25875;-71
2022/03/02 02:19:15;;;;;;;129.07;51.30;;;;;;;-5.96;64.59;101523.64;1662548;86;25559;-71
2022/03/02 02:21:42;;;;;;;132.93;54.67;;;;;;;-5.97;64.60;101518.56;1662540;86;27348;-71
2022/03/02 02:24:09;;;;;;;132.07;53.98;;;;;;;-5.98;64.44;101514.28;1662466;86;25535;-71
2022/03/02 02:26:35;;;;;;;132.22;54.63;;;;;;;-6.02;64.35;101517.25;1678072;84;25610;-71
2022/03/02 02:29:01;;;;;;;143.32;55.80;;;;;;;-6.05;64.22;101509.67;1685704;85;25673;-71
2022/03/02 02:31:28;;;;;;;142.77;56.45;;;;;;;-6.08;64.19;101503.92;1675658;85;25558;-71
2022/03/02 02:33:55;;;;;;;139.00;55.73;;;;;;;-6.12;64.29;101504.76;1685686;85;27935;-71
2022/03/02 02:36:21;;;;;;;139.80;55.63;;;;;;;-6.16;64.49;101498.67;1723293;83;25531;-71
2022/03/02 02:38:48;;;;;;;138.85;55.40;;;;;;;-6.19;64.49;101499.84;1723507;83;25394;-71
2022/03/02 02:41:18;;;;;;;138.88;53.95;;;;;;;-6.20;64.67;101502.14;1723426;83;25677;-71
2022/03/02 02:43:45;;;;;;;144.57;56.23;;;;;;;-6.22;64.84;101499.67;1723334;83;25535;-71
2022/03/02 02:46:12;;;;;;;132.03;53.78;;;;;;;-6.24;64.99;101493.76;1723299;83;27312;-71
2022/03/02 02:48:40;;;;;;;140.20;54.95;;;;;;;-6.25;65.16;101490.81;1723122;82;25757;-71
2022/03/02 02:51:07;;;;;;;135.95;54.93;;;;;;;-6.25;64.96;101493.45;1723338;83;25594;-71
2022/03/02 02:53:34;;;;;;;140.12;53.02;;;;;;;-6.26;65.04;101491.80;1723241;83;25552;-71
2022/03/02 02:56:02;;;;;;;135.85;55.67;;;;;;;-6.29;64.74;101493.95;1723321;83;25593;-71
2022/03/02 02:58:28;;;;;;;135.40;53.85;;;;;;;-6.31;64.97;101498.56;1723309;83;27257;-71
2022/03/02 03:00:55;;;;;;;148.50;58.02;;;;;;;-6.35;65.13;101493.29;1723214;83;25596;-71
2022/03/02 03:03:22;;;;;;;139.85;56.50;;;;;;;-6.36;65.12;101494.30;1723319;83;25233;-71
2022/03/02 03:05:51;;;;;;;154.27;60.43;;;;;;;-6.40;65.21;101489.86;1723371;83;26321;-71
2022/03/02 03:08:17;;;;;;;142.43;57.45;;;;;;;-6.43;65.17;101486.24;1723443;83;25612;-71
2022/03/02 03:10:45;;;;;;;149.57;56.42;;;;;;;-6.44;65.28;101487.22;1723285;83;27403;-71
2022/03/02 03:13:13;;;;;;;147.95;57.73;;;;;;;-6.48;65.26;101482.79;1670117;84;25729;-71
2022/03/02 03:15:40;;;;;;;140.65;59.25;;;;;;;-6.47;65.55;101488.39;1676517;85;25477;-71
2022/03/02 03:18:08;;;;;;;149.27;58.50;;;;;;;-6.47;65.38;101483.12;1679464;84;25791;-71
2022/03/02 03:20:35;;;;;;;155.18;58.70;;;;;;;-6.50;65.08;101486.09;1663697;86;25593;-70
2022/03/02 03:23:02;;;;;;;139.75;57.08;;;;;;;-6.54;65.41;101487.39;1683434;85;27433;-70
2022/03/02 03:25:29;;;;;;;151.60;58.60;;;;;;;-6.56;65.57;101481.48;1680870;85;25498;-70
2022/03/02 03:27:56;;;;;;;162.22;62.08;;;;;;;-6.59;65.35;101483.97;1661550;86;25778;-70
2022/03/02 03:30:25;;;;;;;148.43;59.88;;;;;;;-6.63;65.39;101472.61;1683410;85;25500;-70
2022/03/02 03:32:52;;;;;;;158.85;60.58;;;;;;;-6.65;65.48;101477.22;1680996;85;25522;-70
2022/03/02 03:35:21;;;;;;;147.95;58.10;;;;;;;-6.67;65.48;101474.75;1661457;86;27497;-69
2022/03/02 03:37:49;;;;;;;143.45;59.13;;;;;;;-6.70;65.60;101464.55;1683470;85;25436;-70
2022/03/02 03:40:17;;;;;;;150.10;56.18;;;;;;;-6.70;65.85;101468.50;1680917;85;25427;-70
2022/03/02 03:42:45;;;;;;;117.77;47.50;;;;;;;-6.72;65.71;101467.85;1661728;86;25452;-70
2022/03/02 03:45:13;;;;;;;142.47;54.08;;;;;;;-6.73;65.68;101464.06;1706664;83;25448;-70
2022/03/02 03:47:41;;;;;;;146.05;57.85;;;;;;;-6.74;65.72;101459.78;1709934;83;27338;-70
2022/03/02 03:50:09;;;;;;;149.55;59.70;;;;;;;-6.76;65.65;101462.58;1709817;83;25582;-70
2022/03/02 03:52:36;;;;;;;149.68;56.40;;;;;;;-6.77;65.81;101460.95;1709888;83;25673;-70
2022/03/02 03:55:06;;;;;;;138.07;54.08;;;;;;;-6.78;65.99;101456.16;1709892;83;25621;-70
2022/03/02 03:57:33;;;;;;;146.10;55.92;;;;;;;-6.78;65.94;101451.40;1710010;83;25491;-70
2022/03/02 03:59:59;;;;;;;135.70;53.02;;;;;;;-6.81;65.87;101447.30;1710133;83;27383;-70
2022/03/02 04:02:25;;;;;;;131.52;54.70;;;;;;;-6.83;66.05;101441.86;1710125;83;25611;-70
2022/03/02 04:04:52;;;;;;;138.03;55.08;;;;;;;-6.84;66.07;101445.00;1738853;82;25577;-70
2022/03/02 04:07:18;;;;;;;146.43;56.60;;;;;;;-6.85;66.02;101445.16;1711592;83;25693;-70
2022/03/02 04:09:45;;;;;;;145.97;57.40;;;;;;;-6.87;66.33;101447.14;1693647;84;25225;-70
2022/03/02 04:12:11;;;;;;;139.82;56.20;;;;;;;-6.89;66.33;101447.30;1714006;83;27272;-70
2022/03/02 04:14:38;;;;;;;147.80;56.45;;;;;;;-6.90;66.24;101439.08;1692580;84;25258;-70
2022/03/02 04:17:04;;;;;;;134.47;52.80;;;;;;;-6.90;66.34;101439.08;1712864;83;25444;-70
2022/03/02 04:19:31;;;;;;;134.45;53.83;;;;;;;-6.92;66.29;101438.42;1689532;83;25641;-70
2022/03/02 04:21:57;;;;;;;147.93;55.10;;;;;;;-6.95;66.25;101438.75;1715799;83;25661;-71
2022/03/02 04:24:24;;;;;;;126.92;53.10;;;;;;;-6.98;66.42;101441.70;1715803;83;27421;-71
2022/03/02 04:26:50;;;;;;;138.68;55.08;;;;;;;-6.98;66.23;101435.97;1715804;82;25567;-71
2022/03/02 04:29:16;;;;;;;127.90;51.48;;;;;;;-6.98;66.52;101438.59;1717321;83;25619;-70
2022/03/02 04:31:43;;;;;;;134.32;52.20;;;;;;;-6.98;66.44;101439.91;1715786;83;25644;-70
2022/03/02 04:34:10;;;;;;;126.62;51.50;;;;;;;-6.97;66.52;101438.09;1717357;83;25473;-70
2022/03/02 04:36:36;;;;;;;135.05;51.85;;;;;;;-7.00;66.33;101436.64;1715739;83;27352;-71
2022/03/02 04:39:03;;;;;;;132.67;49.25;;;;;;;-7.01;66.31;101434.16;1717221;83;25617;-70
2022/03/02 04:41:30;;;;;;;128.53;50.40;;;;;;;-7.01;66.26;101434.16;1715818;83;25451;-70
2022/03/02 04:43:56;;;;;;;134.03;53.25;;;;;;;-7.05;66.17;101427.57;1717264;83;25640;-70
2022/03/02 04:46:23;;;;;;;131.30;50.43;;;;;;;-7.06;66.20;101434.66;1715825;83;25606;-70
2022/03/02 04:48:49;;;;;;;137.85;52.03;;;;;;;-7.08;66.17;101434.47;1717321;83;27341;-70
2022/03/02 04:51:15;;;;;;;137.10;50.88;;;;;;;-7.09;66.34;101438.92;1715695;83;25742;-70
2022/03/02 04:53:42;;;;;;;126.60;51.35;;;;;;;-7.10;66.31;101439.08;1717318;83;25434;-70
2022/03/02 04:56:09;;;;;;;129.47;51.60;;;;;;;-7.11;66.55;101433.52;1715722;83;25619;-70
2022/03/02 04:58:35;;;;;;;140.37;51.60;;;;;;;-7.11;66.74;101436.95;1717370;83;25407;-70
2022/03/02 05:01:03;;;;;;;127.62;50.17;;;;;;;-7.10;66.75;101430.69;1715764;83;27337;-70
2022/03/02 05:03:30;;;;;;;134.87;50.90;;;;;;;-7.11;66.65;101431.69;1717225;83;25757;-70
2022/03/02 05:05:56;;;;;;;131.40;50.20;;;;;;;-7.10;66.46;101433.31;1715803;83;25532;-70
2022/03/02 05:08:22;;;;;;;143.05;51.85;;;;;;;-7.10;66.48;101429.87;1715894;82;25779;-71
2022/03/02 05:10:49;;;;;;;124.30;52.43;;;;;;;-7.12;66.46;101422.14;1717475;83;25599;-71
2022/03/02 05:13:16;;;;;;;127.10;51.53;;;;;;;-7.12;66.36;101429.23;1715940;83;27345;-71
2022/03/02 05:15:42;;;;;;;122.07;50.50;;;;;;;-7.12;66.40;101431.34;1717330;83;25633;-71
2022/03/02 05:18:09;;;;;;;127.72;49.08;;;;;;;-7.15;66.27;101425.09;1714348;82;25804;-70
2022/03/02 05:20:36;;;;;;;125.18;49.35;;;;;;;-7.17;66.00;101428.39;1672225;84;25811;-70
2022/03/02 05:23:02;;;;;;;130.35;49.20;;;;;;;-7.20;66.08;101424.30;1712631;83;25400;-71
2022/03/02 05:25:29;;;;;;;127.30;48.80;;;;;;;-7.20;66.26;101427.40;1692163;84;27486;-71
2022/03/02 05:27:56;;;;;;;127.55;49.80;;;;;;;-7.22;66.34;101418.86;1692211;83;25622;-70
2022/03/02 05:30:22;;;;;;;124.75;50.55;;;;;;;-7.24;66.47;101424.28;1672400;84;25589;-70
2022/03/02 05:32:49;;;;;;;132.25;52.75;;;;;;;-7.23;66.60;101418.55;1712629;83;26320;-70
2022/03/02 05:35:16;;;;;;;122.33;49.53;;;;;;;-7.20;66.75;101423.45;1692234;84;25565;-70
2022/03/02 05:37:43;;;;;;;132.93;50.73;;;;;;;-7.19;66.91;101418.54;1712588;83;27377;-69
2022/03/02 05:40:13;;;;;;;135.22;50.95;;;;;;;-7.16;67.15;101416.91;1692050;84;25663;-70
2022/03/02 05:42:40;;;;;;;127.17;50.17;;;;;;;-7.12;67.27;101418.70;1709731;83;25684;-70
2022/03/02 05:45:09;;;;;;;138.32;51.23;;;;;;;-7.10;67.24;101409.65;1692085;84;25623;-70
2022/03/02 05:47:37;;;;;;;134.20;51.68;;;;;;;-7.06;67.34;101408.85;1707835;84;25629;-70
2022/03/02 05:50:07;;;;;;;132.78;51.13;;;;;;;-7.03;67.33;101404.55;1673853;84;27322;-70
2022/03/02 05:52:34;;;;;;;139.40;54.30;;;;;;;-7.01;67.35;101400.78;1707833;84;25607;-70
2022/03/02 05:55:01;;;;;;;135.82;53.25;;;;;;;-6.96;67.37;101405.55;1707757;84;25504;-70
2022/03/02 05:57:27;;;;;;;126.67;52.05;;;;;;;-6.93;67.25;101400.44;1683979;84;26192;-70
2022/03/02 05:59:54;;;;;;;133.35;52.53;;;;;;;-6.89;67.54;101403.89;1673716;84;25554;-70
2022/03/02 06:02:20;;;;;;;120.67;51.23;;;;;;;-6.83;67.70;101401.89;1707754;84;27314;-71
2022/03/02 06:04:47;;;;;;;131.30;53.38;;;;;;;-6.77;67.65;101402.55;1707696;84;25640;-72
2022/03/02 06:07:14;;;;;;;129.55;54.73;;;;;;;-6.69;67.59;101400.89;1707783;84;25523;-70
2022/03/02 06:09:42;;;;;;;130.25;51.77;;;;;;;-6.60;67.99;101399.90;1707917;84;25611;-70
2022/03/02 06:12:10;;;;;;;135.35;52.58;;;;;;;-6.50;68.05;101399.69;1707916;84;25684;-70
2022/03/02 06:14:37;;;;;;;122.78;53.38;;;;;;;-6.40;68.16;101402.47;1707837;84;27352;-71
2022/03/02 06:19:54;;;;;;;118.22;52.58;;;;;;;-6.19;68.32;101408.98;1695502;84;25450;-71
2022/03/02 06:22:25;;;;;;;135.10;53.78;;;;;;;-6.05;68.91;101399.02;1723082;83;25641;-71
2022/03/02 06:24:52;;;;;;;133.05;51.83;;;;;;;-5.88;69.05;101405.51;1723176;83;25634;-71
2022/03/02 06:27:21;;;;;;;137.70;55.17;;;;;;;-5.74;68.86;101404.76;1699074;83;27432;-71
2022/03/02 06:29:48;;;;;;;137.03;55.50;;;;;;;-5.61;68.70;101402.07;1723134;83;25644;-71
2022/03/02 06:32:15;;;;;;;138.75;54.08;;;;;;;-5.50;68.62;101396.37;1723117;83;25484;-71
2022/03/02 06:34:43;;;;;;;145.17;57.60;;;;;;;-5.36;68.47;101389.03;1723091;83;25622;-71
2022/03/02 06:37:10;;;;;;;133.72;55.30;;;;;;;-5.22;68.55;101390.07;1723097;83;25505;-71
2022/03/02 06:39:36;;;;;;;144.40;58.78;;;;;;;-5.07;68.99;101387.48;1723095;83;27320;-71
2022/03/02 06:42:25;;;;;;;155.90;62.93;;;;;;;-4.86;69.53;101387.29;1723038;83;25493;-70
2022/03/02 06:44:59;;;;;;;127.27;53.45;;;;;;;-4.56;70.54;101400.84;1723255;83;25571;-71
2022/03/02 06:47:31;;;;;;;131.35;52.05;;;;;;;-4.12;71.06;101393.87;1693913;83;25799;-71
2022/03/02 06:50:09;;;;;;;126.12;55.20;;;;;;;-3.64;71.96;101394.74;1723193;83;25450;-71
2022/03/02 06:52:45;;;;;;;127.00;55.30;;;;;;;-3.13;72.06;101395.93;1723154;83;27371;-72
2022/03/02 06:55:18;;;;;;;121.62;52.98;;;;;;;-2.62;71.45;101390.91;1723028;83;25749;-72
2022/03/02 06:57:56;;;;;;;119.97;53.87;;;;;;;-2.11;70.94;101395.85;1727003;83;25466;-71
2022/03/02 07:00:24;;;;;;;114.75;49.98;;;;;;;-1.60;70.47;101397.73;1727949;82;25679;-72
2022/03/02 07:03:11;;;;;;;264.42;113.85;;;;;;;-1.11;69.91;101398.41;1728010;83;25691;-71
2022/03/02 07:05:39;;;;;;;124.67;54.45;;;;;;;-0.67;69.02;101398.28;1727962;83;27309;-71
2022/03/02 07:08:08;;;;;;;118.57;52.40;;;;;;;-0.17;67.84;101397.25;1728074;83;25424;-72
2022/03/02 07:10:37;;;;;;;100.50;46.25;;;;;;;0.26;67.04;101394.50;1727919;83;25599;-72
2022/03/02 07:13:06;;;;;;;100.17;45.93;;;;;;;0.70;66.20;101395.45;1728194;82;25613;-72
2022/03/02 07:15:34;;;;;;;96.53;42.65;;;;;;;1.14;65.39;101398.16;1728075;82;25443;-72
2022/03/02 07:18:03;;;;;;;83.37;40.10;;;;;;;1.42;62.85;101399.84;1725423;82;27389;-72
2022/03/02 07:20:30;;;;;;;88.80;40.12;;;;;;;1.62;61.60;101389.50;1688710;83;25730;-72
2022/03/02 07:23:00;;;;;;;80.25;40.48;;;;;;;1.82;60.91;101384.75;1714974;83;25728;-72
2022/03/02 07:25:30;;;;;;;84.10;41.25;;;;;;;2.04;59.70;101387.77;1712512;83;25612;-72
2022/03/02 07:27:59;;;;;;;86.47;41.28;;;;;;;2.21;58.85;101387.95;1715092;83;25663;-72
2022/03/02 07:30:27;;;;;;;80.57;37.78;;;;;;;2.43;58.67;101390.09;1715050;83;27342;-72
2022/03/02 07:33:01;;;;;;;80.75;38.42;;;;;;;2.83;58.85;101390.84;1715272;83;25702;-72
2022/03/02 07:35:32;;;;;;;75.97;38.50;;;;;;;3.31;58.45;101394.36;1715091;83;25403;-71
2022/03/02 07:37:59;;;;;;;76.17;38.92;;;;;;;3.71;57.24;101390.92;1715025;83;26385;-72
2022/03/02 07:40:26;;;;;;;84.30;41.13;;;;;;;4.10;56.99;101390.66;1712051;83;25417;-73
2022/03/02 07:42:52;;;;;;;74.85;38.45;;;;;;;4.63;57.01;101399.89;1706615;84;28015;-74
2022/03/02 07:45:20;;;;;;;81.12;41.83;;;;;;;5.15;55.91;101386.79;1706436;84;25290;-73
2022/03/02 07:47:48;;;;;;;72.75;39.70;;;;;;;5.72;54.41;101382.48;1680077;84;25428;-73
2022/03/02 07:50:16;;;;;;;86.08;41.33;;;;;;;6.24;53.37;101377.72;1706524;84;25637;-73
2022/03/02 07:52:51;;;;;;;71.77;39.47;;;;;;;7.03;52.31;101369.50;1680325;84;25608;-74
2022/03/02 07:55:19;;;;;;;75.80;40.40;;;;;;;7.94;51.02;101364.86;1673657;82;27870;-73
2022/03/02 07:57:55;;;;;;;78.60;41.10;;;;;;;8.72;49.28;101366.63;1703500;82;25650;-72
2022/03/02 08:00:23;;;;;;;79.40;41.37;;;;;;;9.40;47.97;101363.55;1676602;85;25835;-73
2022/03/02 08:02:53;;;;;;;78.57;41.58;;;;;;;10.11;46.53;101349.44;1676528;85;25809;-72
2022/03/02 08:05:22;;;;;;;75.72;42.73;;;;;;;10.64;45.75;101351.53;1676729;84;25672;-72
2022/03/02 08:07:49;;;;;;;78.90;40.90;;;;;;;11.08;44.51;101349.78;1677087;84;27282;-72
2022/03/02 08:10:17;;;;;;;72.12;40.28;;;;;;;11.54;43.04;101344.69;1676846;82;26271;-73
2022/03/02 08:12:45;;;;;;;73.60;40.03;;;;;;;11.97;42.92;101343.89;1677371;85;25717;-73
2022/03/02 08:15:13;;;;;;;68.60;39.70;;;;;;;12.45;42.26;101342.91;1661186;85;25606;-72
2022/03/02 08:17:39;;;;;;;66.97;39.25;;;;;;;12.70;41.72;101343.02;1677264;84;25728;-73
2022/03/02 08:20:07;;;;;;;71.55;38.98;;;;;;;12.87;41.30;101339.74;1697242;84;27495;-74
2022/03/02 08:22:36;;;;;;;70.32;39.35;;;;;;;13.06;40.87;101341.86;1716753;83;25707;-73
2022/03/02 08:25:10;;;;;;;;;;;;;;;13.22;40.31;101336.92;1719427;83;25776;-72
2022/03/02 08:27:40;;;;;;;67.42;38.17;;;;;;;13.41;39.28;101338.77;1716922;83;25743;-73
2022/03/02 08:30:09;;;;;;;73.05;40.65;;;;;;;13.53;38.89;101340.98;1716691;83;26267;-71
2022/03/02 08:32:43;;;;;;;69.30;41.28;;;;;;;13.69;38.74;101340.93;1696872;83;27369;-72
2022/03/02 08:35:11;;;;;;;78.57;42.10;;;;;;;13.94;38.43;101338.19;1716814;83;25746;-73
2022/03/02 08:37:38;;;;;;;98.80;52.83;;;;;;;14.16;37.53;101329.83;1716812;83;25731;-72
2022/03/02 08:40:07;;;;;;;69.27;38.53;;;;;;;14.28;37.39;101328.71;1696343;83;26326;-71
2022/03/02 08:42:34;;;;;;;66.82;38.48;;;;;;;14.54;37.01;101325.37;1667019;85;25759;-72
2022/03/02 08:45:03;;;;;;;66.60;37.20;;;;;;;14.76;36.10;101324.56;1666921;86;27298;-71
2022/03/02 08:47:31;;;;;;;61.43;36.23;;;;;;;14.83;35.66;101315.95;1667139;86;25707;-71
2022/03/02 08:49:58;;;;;;;59.18;33.63;;;;;;;14.97;35.18;101307.15;1666666;86;25768;-72
2022/03/02 08:52:32;;;;;;;57.50;33.90;;;;;;;15.06;34.59;101303.89;1659122;83;25784;-71
2022/03/02 08:55:04;;;;;;;60.40;34.23;;;;;;;14.93;34.12;101302.89;1632733;85;25699;-70
2022/03/02 08:57:34;;;;;;;54.83;31.70;;;;;;;15.08;34.12;101298.13;1653838;85;27306;-71
2022/03/02 09:00:06;;;;;;;60.43;33.10;;;;;;;15.38;34.14;101293.73;1659555;85;26348;-71
2022/03/02 09:02:36;;;;;;;60.15;33.00;;;;;;;15.71;33.73;101297.97;1658647;85;25783;-73
2022/03/02 09:05:05;;;;;;;53.35;30.10;;;;;;;15.98;33.53;101298.26;1676174;85;25852;-72
2022/03/02 09:07:32;;;;;;;;;;;;;;;16.27;33.27;101287.25;1687452;84;25753;-72
2022/03/02 09:10:00;;;;;;;41.45;23.67;;;;;;;16.57;32.26;101290.89;1682441;84;27430;-74
2022/03/02 09:12:27;;;;;;;38.63;22.23;;;;;;;16.38;30.97;101283.06;1682242;85;25756;-72
2022/03/02 09:14:57;;;;;;;39.10;21.23;;;;;;;16.38;30.97;101283.06;1682196;83;25770;-73
2022/03/02 09:17:25;;;;;;;40.50;23.80;;;;;;;16.39;31.00;101280.55;1607510;88;26206;-73
2022/03/02 09:19:53;;;;;;;39.00;23.27;;;;;;;16.02;30.28;101283.66;1605450;87;25855;-73
2022/03/02 09:22:23;;;;;;;35.33;21.30;;;;;;;16.13;31.14;101281.97;1604890;89;27388;-73
2022/03/02 09:24:51;;;;;;;35.70;20.02;;;;;;;16.51;31.08;101282.62;1604867;89;25756;-74
2022/03/02 09:27:19;;;;;;;31.65;17.57;;;;;;;16.68;30.40;101274.37;1604947;89;25746;-74
2022/03/02 09:29:48;;;;;;;36.45;19.40;;;;;;;16.89;30.50;101270.95;1604971;89;25788;-73
2022/03/02 09:32:16;;;;;;;30.27;16.97;;;;;;;17.06;30.29;101279.64;1605076;89;25746;-73
2022/03/02 09:34:46;;;;;;;26.52;14.75;;;;;;;17.45;30.22;101273.01;1604952;89;28003;-73
2022/03/02 09:37:16;;;;;;;28.57;17.15;;;;;;;17.76;29.60;101266.34;1604643;89;26332;-75
2022/03/02 09:39:44;;;;;;;26.12;14.93;;;;;;;17.85;29.11;101263.54;1605044;89;25955;-75
2022/03/02 09:42:21;;;;;;;26.23;15.80;;;;;;;17.72;28.56;101258.02;1583474;89;25795;-74
2022/03/02 09:44:52;;;;;;;24.37;14.85;;;;;;;17.57;28.69;101255.05;1604403;89;25700;-74
2022/03/02 09:47:21;;;;;;;24.45;14.75;;;;;;;17.49;28.57;101250.69;1603319;89;27343;-75
2022/03/02 09:49:51;;;;;;;;;;;;;;;17.47;28.39;101253.50;1607761;89;25784;-74
2022/03/02 09:52:20;;;;;;;22.27;13.40;;;;;;;17.34;28.01;101252.64;1584352;89;25696;-73
2022/03/02 09:54:49;;;;;;;;;;;;;;;17.33;28.12;101246.38;1605928;89;25841;-75
2022/03/02 09:57:19;;;;;;;24.35;13.48;;;;;;;17.44;27.78;101244.62;1598419;89;25378;-75
2022/03/02 09:59:53;;;;;;;22.90;12.85;;;;;;;17.47;28.17;101234.36;1605941;89;27312;-75
2022/03/02 10:02:39;;;;;;;22.77;13.62;;;;;;;17.66;27.98;101238.02;1606204;89;25573;-76
2022/03/02 10:05:13;;;;;;;21.12;13.22;;;;;;;17.78;28.09;101229.87;1605653;89;25817;-74
2022/03/02 10:07:46;;;;;;;29.18;17.45;;;;;;;17.99;28.11;101224.97;1604851;89;25811;-75
2022/03/02 10:10:18;;;;;;;28.62;16.27;;;;;;;18.22;27.83;101226.19;1605451;89;25751;-75
2022/03/02 10:12:45;;;;;;;28.75;15.13;;;;;;;18.38;27.44;101224.17;1605403;89;27904;-76
2022/03/02 10:15:14;;;;;;;28.57;16.00;;;;;;;18.35;27.37;101211.14;1605087;89;25792;-75
2022/03/02 10:17:45;;;;;;;17.73;11.33;;;;;;;18.34;27.09;101206.25;1605204;89;25791;-74
2022/03/02 10:20:15;;;;;;;17.37;9.93;;;;;;;18.40;26.75;101209.55;1629982;85;25739;-76
2022/03/02 10:23:32;;;;;;;18.60;11.10;;;;;;;18.35;26.86;101200.19;1707063;84;25702;-74
2022/03/02 10:26:21;;;;;;;20.12;12.37;;;;;;;18.46;26.62;101199.41;1706989;84;27338;-73
2022/03/02 10:29:15;;;;;;;18.32;11.22;;;;;;;18.55;26.54;101197.94;1660095;86;25786;-74
2022/03/02 10:31:54;;;;;;;17.57;10.65;;;;;;;18.41;26.24;101190.05;1660396;86;25724;-75
2022/03/02 10:34:34;;;;;;;16.82;10.20;;;;;;;18.18;26.09;101191.59;1660013;85;25856;-74
2022/03/02 10:37:21;;;;;;;18.25;10.38;;;;;;;17.98;26.04;101189.95;1660456;86;25806;-74
2022/03/02 10:40:05;;;;;;;16.37;11.28;;;;;;;18.10;26.08;101183.72;1660433;86;27341;-75
2022/03/02 10:42:31;;;;;;;17.95;10.53;;;;;;;18.09;25.76;101184.27;1659512;86;25883;-74
2022/03/02 10:45:09;;;;;;;16.62;10.80;;;;;;;18.15;26.04;101179.40;1660104;86;25924;-74
2022/03/02 10:48:07;;;;;;;20.08;11.30;;;;;;;18.35;26.27;101172.80;1660407;86;25728;-74
2022/03/02 10:50:36;;;;;;;15.35;9.95;;;;;;;18.56;25.93;101178.17;1660488;85;25757;-74
2022/03/02 10:53:13;;;;;;;21.48;11.05;;;;;;;18.75;26.10;101169.41;1628163;88;26863;-75
2022/03/02 10:55:46;;;;;;;17.70;10.43;;;;;;;19.06;25.78;101174.31;1660382;85;25752;-75
2022/03/02 10:58:17;;;;;;;14.30;8.83;;;;;;;18.87;25.00;101174.91;1637702;86;26239;-71
2022/03/02 11:00:46;;;;;;;16.35;9.55;;;;;;;18.81;24.86;101164.73;1628221;88;25761;-72
2022/03/02 11:03:18;;;;;;;13.83;9.05;;;;;;;19.30;25.18;101163.06;1628369;88;25682;-73
2022/03/02 11:05:44;;;;;;;15.38;9.43;;;;;;;20.20;24.58;101158.09;1644445;87;27919;-72
2022/03/02 11:08:11;;;;;;;15.23;9.98;;;;;;;20.88;23.99;101156.22;1707004;83;25765;-72
2022/03/02 11:10:39;;;;;;;17.52;10.60;;;;;;;21.49;23.84;101160.86;1710465;83;25730;-72
2022/03/02 11:13:15;;;;;;;14.37;9.87;;;;;;;21.86;23.30;101149.37;1707194;84;25887;-73
2022/03/02 11:15:52;;;;;;;14.10;9.90;;;;;;;22.29;22.89;101149.59;1706121;83;25738;-72
2022/03/02 11:18:37;;;;;;;16.57;10.98;;;;;;;22.47;22.55;101146.31;1706911;84;27395;-72